Time;durP1;ratioP1;P1;durP2;ratioP2;P2;SDS_P1;SDS_P2;PMS_P1;PMS_P2;Temp;Humidity;BMP_temperature;BMP_pressure;BME280_temperature;BME280_humidity;BME280_pressure;Samples;Min_cycle;Max_cycle;Signal;HPM_P1;HPM_P2
2022/03/08 00:02:19;;;;;;;9.15;5.20;;;2.50;98.00;;;;;;5154637;27;20046;-71
2022/03/08 00:04:45;;;;;;;8.98;5.95;;;2.50;98.30;;;;;;5135650;27;20045;-71
2022/03/08 00:07:12;;;;;;;9.45;5.30;;;2.50;98.40;;;;;;5154634;27;20082;-70
2022/03/08 00:09:38;;;;;;;8.95;4.97;;;2.50;98.40;;;;;;5154389;27;20061;-71
2022/03/08 00:12:04;;;;;;;9.52;5.30;;;2.50;98.40;;;;;;5154684;27;20047;-71
2022/03/08 00:14:31;;;;;;;9.05;5.95;;;2.50;98.50;;;;;;5154150;27;20498;-79
2022/03/08 00:16:57;;;;;;;9.85;5.82;;;2.50;98.30;;;;;;5136169;27;20046;-72
2022/03/08 00:19:23;;;;;;;9.27;5.90;;;2.40;98.10;;;;;;5154612;27;20086;-72
2022/03/08 00:21:48;;;;;;;7.47;4.90;;;2.40;98.10;;;;;;5151890;27;20051;-72
2022/03/08 00:24:16;;;;;;;10.03;5.97;;;2.40;98.20;;;;;;5154550;27;20085;-72
2022/03/08 00:26:42;;;;;;;11.10;6.78;;;2.40;98.30;;;;;;5135771;27;20168;-69
2022/03/08 00:29:08;;;;;;;10.93;6.18;;;2.30;98.10;;;;;;5154407;27;20050;-69
2022/03/08 00:31:34;;;;;;;10.83;5.90;;;2.30;98.20;;;;;;5154119;27;20042;-69
2022/03/08 00:34:00;;;;;;;9.63;5.87;;;2.20;98.20;;;;;;5154642;27;20039;-69
2022/03/08 00:36:26;;;;;;;9.55;5.82;;;2.20;98.10;;;;;;5154396;27;20182;-69
2022/03/08 00:38:52;;;;;;;11.43;5.43;;;2.10;98.30;;;;;;5153952;27;20549;-69
2022/03/08 00:41:19;;;;;;;10.33;5.60;;;2.10;98.50;;;;;;5135831;27;20064;-69
2022/03/08 00:43:44;;;;;;;9.65;5.65;;;2.00;98.50;;;;;;5154016;27;20054;-69
2022/03/08 00:46:10;;;;;;;11.33;6.43;;;2.10;98.70;;;;;;5154243;27;20051;-69
2022/03/08 00:48:36;;;;;;;8.33;5.47;;;2.00;98.70;;;;;;5118566;27;20046;-69
2022/03/08 00:51:02;;;;;;;11.03;6.00;;;2.00;98.80;;;;;;5154206;27;20046;-69
2022/03/08 00:53:27;;;;;;;8.40;5.17;;;2.00;98.80;;;;;;5153986;27;20046;-69
2022/03/08 00:55:53;;;;;;;12.30;5.60;;;2.00;98.70;;;;;;5153845;27;20093;-69
2022/03/08 00:58:20;;;;;;;10.67;6.17;;;1.90;98.60;;;;;;5154359;27;20042;-69
2022/03/08 01:00:46;;;;;;;9.85;5.60;;;1.90;98.40;;;;;;5157618;27;20043;-69
2022/03/08 01:03:12;;;;;;;10.57;6.13;;;1.90;98.50;;;;;;5139642;27;20049;-69
2022/03/08 01:05:38;;;;;;;11.10;6.23;;;1.90;98.60;;;;;;5157606;27;20082;-72
2022/03/08 01:08:05;;;;;;;10.60;5.53;;;1.90;98.70;;;;;;5157991;27;20489;-71
2022/03/08 01:10:31;;;;;;;9.27;6.20;;;1.90;98.60;;;;;;5139660;27;20054;-71
2022/03/08 01:12:58;;;;;;;11.07;5.80;;;1.90;98.50;;;;;;5157471;27;20078;-72
2022/03/08 01:15:25;;;;;;;10.02;5.70;;;1.80;98.60;;;;;;5139696;27;20454;-71
2022/03/08 01:17:52;;;;;;;9.60;5.85;;;1.80;98.70;;;;;;5157247;27;20126;-71
2022/03/08 01:20:18;;;;;;;9.35;6.05;;;1.80;98.80;;;;;;5122212;27;20055;-71
2022/03/08 01:22:44;;;;;;;8.77;5.40;;;1.90;98.70;;;;;;5135234;27;20058;-69
2022/03/08 01:25:12;;;;;;;12.67;6.03;;;1.80;98.60;;;;;;5136887;27;20043;-69
2022/03/08 01:27:38;;;;;;;10.20;5.95;;;1.80;98.60;;;;;;5136343;27;20047;-69
2022/03/08 01:30:11;;;;;;;9.80;5.90;;;1.80;98.60;;;;;;5136656;27;20039;-69
2022/03/08 01:32:37;;;;;;;10.85;6.10;;;1.80;98.70;;;;;;5135388;27;20047;-69
2022/03/08 01:35:03;;;;;;;13.00;6.10;;;1.70;98.60;;;;;;5135301;27;20047;-69
2022/03/08 01:37:29;;;;;;;12.10;6.75;;;1.70;98.70;;;;;;5136484;27;20035;-69
2022/03/08 01:39:55;;;;;;;11.93;6.97;;;1.70;98.80;;;;;;5136146;27;20062;-69
2022/03/08 01:42:24;;;;;;;10.20;6.33;;;1.70;99.10;;;;;;5135144;27;20082;-69
2022/03/08 01:44:50;;;;;;;11.13;6.75;;;1.70;98.80;;;;;;5136147;27;20139;-69
2022/03/08 01:47:20;;;;;;;12.15;6.30;;;1.70;98.80;;;;;;5135382;27;20475;-69
2022/03/08 01:49:46;;;;;;;11.82;6.30;;;1.70;98.90;;;;;;5136154;27;20390;-70
2022/03/08 01:52:12;;;;;;;13.18;6.47;;;1.70;99.20;;;;;;5136273;27;20078;-69
2022/03/08 01:54:38;;;;;;;10.95;6.07;;;1.70;99.10;;;;;;5135000;27;20081;-69
2022/03/08 01:57:05;;;;;;;9.47;6.20;;;1.70;99.10;;;;;;5135569;27;20121;-69
2022/03/08 01:59:31;;;;;;;10.38;6.50;;;1.60;99.10;;;;;;5136080;27;20043;-69
2022/03/08 02:01:57;;;;;;;12.57;6.63;;;1.70;99.30;;;;;;5134703;27;20083;-69
2022/03/08 02:04:23;;;;;;;11.80;6.43;;;1.70;99.30;;;;;;5134837;27;20093;-69
2022/03/08 02:06:49;;;;;;;9.97;6.43;;;1.70;99.20;;;;;;5135703;27;20047;-69
2022/03/08 02:09:15;;;;;;;9.93;6.22;;;1.70;99.10;;;;;;5135034;27;20054;-68
2022/03/08 02:11:41;;;;;;;10.87;6.70;;;1.60;99.10;;;;;;5134717;27;20051;-73
2022/03/08 02:14:08;;;;;;;11.70;7.63;;;1.70;99.10;;;;;;5135832;27;20050;-69
2022/03/08 02:16:34;;;;;;;10.95;6.60;;;1.60;99.10;;;;;;5134758;27;20054;-69
2022/03/08 02:19:00;;;;;;;10.57;6.50;;;1.60;99.30;;;;;;5135283;27;20088;-69
2022/03/08 02:21:26;;;;;;;12.47;6.67;;;1.60;99.40;;;;;;5140724;27;20050;-69
2022/03/08 02:23:52;;;;;;;9.52;6.32;;;1.60;99.40;;;;;;5120474;27;20433;-69
2022/03/08 02:26:21;;;;;;;11.07;6.80;;;1.60;99.30;;;;;;5138137;27;20394;-69
2022/03/08 02:28:47;;;;;;;11.13;6.63;;;1.60;99.30;;;;;;5155860;27;20474;-69
2022/03/08 02:31:12;;;;;;;11.23;6.60;;;1.60;99.50;;;;;;5137961;27;20140;-69
2022/03/08 02:33:38;;;;;;;11.00;6.77;;;1.50;99.60;;;;;;5156150;27;20038;-69
2022/03/08 02:36:07;;;;;;;10.90;6.57;;;1.60;99.80;;;;;;5155811;27;20062;-69
2022/03/08 02:38:33;;;;;;;11.15;6.68;;;1.50;99.80;;;;;;5156012;27;20042;-69
2022/03/08 02:40:58;;;;;;;11.73;6.83;;;1.50;99.90;;;;;;5155342;27;20048;-69
2022/03/08 02:43:24;;;;;;;13.47;6.83;;;1.60;99.80;;;;;;5137630;27;20041;-70
2022/03/08 02:45:50;;;;;;;10.07;6.37;;;1.50;99.90;;;;;;5137180;27;20046;-69
2022/03/08 02:48:15;;;;;;;11.27;7.07;;;1.60;99.90;;;;;;5155784;27;20043;-69
2022/03/08 02:50:41;;;;;;;11.73;6.60;;;1.50;99.90;;;;;;5120488;27;20042;-69
2022/03/08 02:53:07;;;;;;;11.30;7.10;;;1.40;99.90;;;;;;5137170;27;20047;-69
2022/03/08 02:55:36;;;;;;;11.83;6.27;;;1.50;99.90;;;;;;5137236;27;20129;-69
2022/03/08 02:58:04;;;;;;;9.90;6.40;;;1.40;99.90;;;;;;5155291;27;20053;-69
2022/03/08 03:00:31;;;;;;;14.13;7.60;;;1.40;99.90;;;;;;5155802;27;20069;-68
2022/03/08 03:02:57;;;;;;;12.15;7.63;;;1.40;99.90;;;;;;5137130;27;20436;-69
2022/03/08 03:05:24;;;;;;;11.57;6.90;;;1.40;99.90;;;;;;5137332;27;20454;-69
2022/03/08 03:07:50;;;;;;;12.65;7.82;;;1.40;99.90;;;;;;5136908;27;20042;-70
2022/03/08 03:10:18;;;;;;;12.60;7.23;;;1.30;99.90;;;;;;5136987;27;20046;-69
2022/03/08 03:12:44;;;;;;;10.20;7.13;;;1.30;99.90;;;;;;5155338;27;20089;-69
2022/03/08 03:15:12;;;;;;;12.23;7.20;;;1.40;99.90;;;;;;5155092;27;20046;-69
2022/03/08 03:17:38;;;;;;;11.35;6.95;;;1.30;99.90;;;;;;5155149;27;20035;-69
2022/03/08 03:20:07;;;;;;;10.38;6.85;;;1.30;99.90;;;;;;5119548;27;20081;-69
2022/03/08 03:22:34;;;;;;;10.77;6.65;;;1.30;99.90;;;;;;5154574;27;20051;-69
2022/03/08 03:24:59;;;;;;;12.07;7.50;;;1.30;99.90;;;;;;5136078;27;20486;-69
2022/03/08 03:27:25;;;;;;;11.27;7.20;;;1.30;99.90;;;;;;5136490;27;20050;-69
2022/03/08 03:29:51;;;;;;;13.18;7.40;;;1.30;99.90;;;;;;5136582;27;20068;-69
2022/03/08 03:32:19;;;;;;;10.93;6.97;;;1.20;99.90;;;;;;5155303;27;20130;-69
2022/03/08 03:34:45;;;;;;;18.10;8.57;;;1.20;99.90;;;;;;5154991;27;20047;-69
2022/03/08 03:37:11;;;;;;;13.75;7.50;;;1.20;99.90;;;;;;5136005;27;20057;-69
2022/03/08 03:39:37;;;;;;;13.10;8.37;;;1.10;99.90;;;;;;5136665;27;20051;-69
2022/03/08 03:42:04;;;;;;;15.23;7.17;;;1.10;99.90;;;;;;5154675;27;20284;-69
2022/03/08 03:44:29;;;;;;;15.73;9.02;;;1.10;99.90;;;;;;5136572;27;20038;-69
2022/03/08 03:46:56;;;;;;;12.70;8.70;;;1.10;99.90;;;;;;5154529;27;20043;-69
2022/03/08 03:49:22;;;;;;;12.93;8.18;;;1.10;99.90;;;;;;5154814;27;20068;-69
2022/03/08 03:51:50;;;;;;;14.07;8.83;;;1.20;99.90;;;;;;5154764;27;20039;-68
2022/03/08 03:54:18;;;;;;;14.15;8.45;;;1.10;99.90;;;;;;5136549;27;20039;-69
2022/03/08 03:56:44;;;;;;;11.80;8.48;;;1.10;99.90;;;;;;5136358;27;20417;-69
2022/03/08 03:59:09;;;;;;;12.38;8.13;;;1.00;99.90;;;;;;5154138;27;20530;-69
2022/03/08 04:01:35;;;;;;;13.87;8.50;;;1.00;99.90;;;;;;5136493;27;20035;-69
2022/03/08 04:04:01;;;;;;;12.27;8.17;;;1.00;99.90;;;;;;5118724;27;20478;-69
2022/03/08 04:06:27;;;;;;;16.10;9.73;;;0.90;99.90;;;;;;5154649;27;20045;-69
2022/03/08 04:08:53;;;;;;;14.73;8.80;;;1.00;99.90;;;;;;5154362;27;20501;-77
2022/03/08 04:11:18;;;;;;;13.07;8.73;;;0.90;99.90;;;;;;5154250;27;20157;-69
2022/03/08 04:13:44;;;;;;;14.47;9.47;;;0.90;99.90;;;;;;5154950;27;20087;-69
2022/03/08 04:16:10;;;;;;;17.37;9.37;;;0.90;99.90;;;;;;5136055;27;20501;-69
2022/03/08 04:18:36;;;;;;;16.13;10.13;;;0.90;99.90;;;;;;5154522;27;20359;-69
2022/03/08 04:21:02;;;;;;;15.80;10.17;;;0.90;99.90;;;;;;5135579;27;20541;-69
2022/03/08 04:23:27;;;;;;;15.90;9.90;;;0.90;99.90;;;;;;5136266;27;20539;-69
2022/03/08 04:25:54;;;;;;;14.63;9.53;;;0.90;99.90;;;;;;5136201;27;20074;-69
2022/03/08 04:28:19;;;;;;;15.02;9.98;;;0.90;99.90;;;;;;5135985;27;20125;-69
2022/03/08 04:30:45;;;;;;;17.73;10.80;;;0.90;99.90;;;;;;5154410;27;20554;-69
2022/03/08 04:33:11;;;;;;;14.53;9.87;;;0.90;99.90;;;;;;5135910;27;20051;-69
2022/03/08 04:35:37;;;;;;;14.30;9.73;;;0.90;99.90;;;;;;5139650;27;20049;-69
2022/03/08 04:38:03;;;;;;;16.60;10.67;;;0.90;99.90;;;;;;5158048;27;20050;-69
2022/03/08 04:40:29;;;;;;;17.20;11.05;;;0.90;99.90;;;;;;5139908;27;20542;-69
2022/03/08 04:42:55;;;;;;;14.32;10.18;;;0.90;99.90;;;;;;5158335;27;20043;-69
2022/03/08 04:45:20;;;;;;;15.70;10.67;;;0.90;99.90;;;;;;5158065;27;20133;-69
2022/03/08 04:47:46;;;;;;;13.63;9.70;;;0.90;99.90;;;;;;5140024;27;20046;-69
2022/03/08 04:50:14;;;;;;;15.07;10.97;;;0.80;99.90;;;;;;5139743;27;20039;-69
2022/03/08 04:52:41;;;;;;;17.10;11.85;;;0.90;99.90;;;;;;5158199;27;20070;-69
2022/03/08 04:55:08;;;;;;;18.65;11.68;;;0.80;99.90;;;;;;5157859;27;20069;-69
2022/03/08 04:57:33;;;;;;;17.20;11.18;;;0.80;99.90;;;;;;5139377;27;20478;-70
2022/03/08 04:59:59;;;;;;;16.90;11.03;;;0.80;99.90;;;;;;5157794;27;20053;-70
2022/03/08 05:02:25;;;;;;;16.30;11.32;;;0.80;99.90;;;;;;5139607;27;20050;-69
2022/03/08 05:04:51;;;;;;;14.83;10.87;;;0.80;99.90;;;;;;5157910;27;20047;-70
2022/03/08 05:07:17;;;;;;;17.37;11.10;;;0.70;99.90;;;;;;5157668;27;20074;-70
2022/03/08 05:09:42;;;;;;;16.27;11.13;;;0.70;99.90;;;;;;5157921;27;20561;-70
2022/03/08 05:12:09;;;;;;;15.83;11.47;;;0.70;99.90;;;;;;5139305;27;20087;-70
2022/03/08 05:14:35;;;;;;;18.02;11.27;;;0.70;99.90;;;;;;5139423;27;20042;-70
2022/03/08 05:17:01;;;;;;;18.52;12.73;;;0.70;99.90;;;;;;5157629;27;20460;-70
2022/03/08 05:19:27;;;;;;;15.43;11.03;;;0.70;99.90;;;;;;5157758;27;20125;-70
2022/03/08 05:21:53;;;;;;;17.23;11.00;;;0.70;99.90;;;;;;5157027;27;20054;-70
2022/03/08 05:24:18;;;;;;;20.93;11.53;;;0.70;99.90;;;;;;5157353;27;20047;-70
2022/03/08 05:26:44;;;;;;;16.57;11.60;;;0.70;99.90;;;;;;5157176;27;20082;-70
2022/03/08 05:29:10;;;;;;;16.83;11.37;;;0.70;99.90;;;;;;5156983;27;20045;-69
2022/03/08 05:31:36;;;;;;;16.90;11.70;;;0.70;99.90;;;;;;5138972;27;20042;-69
2022/03/08 05:34:01;;;;;;;18.77;13.10;;;0.70;99.90;;;;;;5157076;27;20053;-77
2022/03/08 05:36:27;;;;;;;19.27;12.63;;;0.70;99.90;;;;;;5157306;27;20077;-69
2022/03/08 05:38:53;;;;;;;17.57;11.43;;;0.70;99.90;;;;;;5157215;27;20031;-69
2022/03/08 05:41:19;;;;;;;18.75;12.10;;;0.70;99.90;;;;;;5156877;27;20390;-69
2022/03/08 05:43:46;;;;;;;16.73;11.33;;;0.60;99.90;;;;;;5157233;27;20043;-69
2022/03/08 05:46:11;;;;;;;20.13;11.48;;;0.70;99.90;;;;;;5138599;27;20046;-69
2022/03/08 05:48:37;;;;;;;16.73;11.57;;;0.70;99.90;;;;;;5157123;27;20046;-70
2022/03/08 05:51:04;;;;;;;16.83;11.47;;;0.70;99.90;;;;;;5156802;27;20087;-79
2022/03/08 05:53:30;;;;;;;16.75;11.65;;;0.70;99.90;;;;;;5156996;27;20043;-70
2022/03/08 05:55:55;;;;;;;17.67;12.05;;;0.70;99.90;;;;;;5156946;27;20050;-70
2022/03/08 05:58:22;;;;;;;18.23;11.83;;;0.60;99.90;;;;;;5138165;27;20475;-70
2022/03/08 06:00:47;;;;;;;17.00;11.70;;;0.60;99.90;;;;;;5156794;27;20152;-70
2022/03/08 06:03:13;;;;;;;17.57;12.03;;;0.60;99.90;;;;;;5138312;27;20525;-71
2022/03/08 06:05:39;;;;;;;19.07;12.47;;;0.70;99.90;;;;;;5156785;27;20043;-70
2022/03/08 06:08:05;;;;;;;20.30;11.67;;;0.70;99.90;;;;;;5156674;27;20054;-78
2022/03/08 06:10:32;;;;;;;17.27;12.05;;;0.60;99.90;;;;;;5138182;27;20042;-70
2022/03/08 06:12:58;;;;;;;18.40;12.70;;;0.60;99.90;;;;;;5156656;27;20054;-70
2022/03/08 06:15:24;;;;;;;16.13;11.63;;;0.70;99.90;;;;;;5137829;27;20394;-71
2022/03/08 06:17:49;;;;;;;18.87;12.17;;;0.60;99.90;;;;;;5156486;27;20061;-71
2022/03/08 06:20:15;;;;;;;19.83;13.50;;;0.70;99.90;;;;;;5137879;27;20054;-71
2022/03/08 06:22:41;;;;;;;19.20;12.97;;;0.70;99.90;;;;;;5156057;27;20461;-71
2022/03/08 06:25:07;;;;;;;23.57;13.57;;;0.70;99.90;;;;;;5156081;27;20129;-76
2022/03/08 06:27:33;;;;;;;18.35;12.52;;;0.70;99.90;;;;;;5138201;27;20046;-71
2022/03/08 06:29:59;;;;;;;20.40;13.23;;;0.60;99.90;;;;;;5156445;27;20394;-71
2022/03/08 06:32:25;;;;;;;20.77;13.00;;;0.70;99.90;;;;;;5137484;27;20436;-71
2022/03/08 06:34:51;;;;;;;17.27;12.77;;;0.60;99.90;;;;;;5156161;27;20614;-70
2022/03/08 06:37:18;;;;;;;17.50;12.85;;;0.70;99.90;;;;;;5155826;27;20085;-71
2022/03/08 06:39:44;;;;;;;18.63;12.32;;;0.70;99.90;;;;;;5156024;27;20068;-71
2022/03/08 06:42:10;;;;;;;17.80;11.85;;;0.70;99.90;;;;;;5155810;27;20122;-71
2022/03/08 06:44:38;;;;;;;20.93;12.33;;;0.70;99.90;;;;;;5156381;27;20423;-72
2022/03/08 06:47:06;;;;;;;19.73;12.75;;;0.70;99.90;;;;;;5156153;27;20043;-70
2022/03/08 06:49:32;;;;;;;16.88;11.85;;;0.80;99.90;;;;;;5155634;27;20057;-70
2022/03/08 06:51:58;;;;;;;19.83;12.63;;;0.80;99.90;;;;;;5155868;27;20046;-71
2022/03/08 06:54:24;;;;;;;18.03;12.10;;;0.80;99.90;;;;;;5155586;27;20097;-69
2022/03/08 06:56:49;;;;;;;20.77;11.67;;;0.80;99.90;;;;;;5136831;27;20042;-69
2022/03/08 06:59:16;;;;;;;16.80;12.07;;;0.90;99.90;;;;;;5155407;27;20042;-69
2022/03/08 07:01:41;;;;;;;18.63;12.40;;;0.90;99.90;;;;;;5155845;27;20500;-68
2022/03/08 07:04:07;;;;;;;16.40;11.40;;;1.00;99.90;;;;;;5136950;27;20043;-67
2022/03/08 07:06:33;;;;;;;17.50;12.33;;;1.00;99.90;;;;;;5155272;27;20130;-67
2022/03/08 07:08:59;;;;;;;16.87;11.03;;;1.10;99.90;;;;;;5155576;27;20095;-66
2022/03/08 07:11:25;;;;;;;17.92;10.77;;;1.10;99.90;;;;;;5155245;27;20051;-70
2022/03/08 07:13:51;;;;;;;16.97;11.03;;;1.20;99.90;;;;;;5119953;27;20050;-74
2022/03/08 07:16:18;;;;;;;14.97;10.80;;;1.20;99.90;;;;;;5136620;27;20132;-68
2022/03/08 07:18:44;;;;;;;14.90;10.70;;;1.30;99.90;;;;;;5155070;27;20035;-69
2022/03/08 07:21:10;;;;;;;17.33;11.57;;;1.30;99.90;;;;;;5155143;27;20038;-68
2022/03/08 07:23:36;;;;;;;17.98;10.57;;;1.40;99.90;;;;;;5155186;27;20085;-68
2022/03/08 07:26:02;;;;;;;15.87;10.90;;;1.40;99.90;;;;;;5119748;27;20090;-68
2022/03/08 07:28:27;;;;;;;15.05;10.18;;;1.50;99.90;;;;;;5155106;27;20569;-68
2022/03/08 07:30:53;;;;;;;14.40;10.43;;;1.50;99.90;;;;;;5155313;27;20034;-68
2022/03/08 07:33:19;;;;;;;16.20;10.63;;;;;;;;;;5155062;27;20057;-68
2022/03/08 07:35:45;;;;;;;16.08;9.95;;;2.10;99.90;;;;;;5155245;27;20054;-69
2022/03/08 07:38:11;;;;;;;14.67;10.23;;;1.80;99.90;;;;;;5154885;27;20034;-69
2022/03/08 07:40:36;;;;;;;17.20;11.37;;;1.90;99.90;;;;;;5154986;27;20130;-70
2022/03/08 07:43:03;;;;;;;15.47;9.93;;;2.00;99.90;;;;;;5155457;27;20467;-69
2022/03/08 07:45:29;;;;;;;12.63;9.60;;;2.20;99.90;;;;;;5154912;27;20336;-70
2022/03/08 07:47:55;;;;;;;14.30;9.75;;;2.40;99.90;;;;;;5136711;27;20042;-69
2022/03/08 07:50:22;;;;;;;17.10;10.30;;;2.50;99.90;;;;;;5136395;27;20482;-69
2022/03/08 07:52:48;;;;;;;14.13;9.88;;;2.70;99.90;;;;;;5154997;27;20740;-69
2022/03/08 07:55:14;;;;;;;13.45;8.80;;;2.90;99.10;;;;;;5154924;27;20088;-69
2022/03/08 07:57:40;;;;;;;15.33;9.53;;;2.90;99.10;;;;;;5155162;27;20078;-69
2022/03/08 08:00:06;;;;;;;15.18;9.43;;;3.10;98.30;;;;;;5154918;27;20129;-69
2022/03/08 08:02:32;;;;;;;13.68;9.43;;;3.20;98.20;;;;;;5154589;27;20367;-69
2022/03/08 08:04:58;;;;;;;12.67;9.83;;;3.30;97.20;;;;;;5155100;27;20099;-69
2022/03/08 08:07:24;;;;;;;13.00;8.70;;;3.50;96.80;;;;;;5154618;27;20038;-69
2022/03/08 08:09:50;;;;;;;13.80;9.47;;;3.50;96.20;;;;;;5157582;27;20459;-69
2022/03/08 08:12:15;;;;;;;14.13;8.90;;;3.60;96.00;;;;;;5159250;27;20086;-69
2022/03/08 08:14:41;;;;;;;13.97;9.13;;;3.70;95.70;;;;;;5159209;27;20047;-69
2022/03/08 08:17:07;;;;;;;13.77;9.13;;;3.80;96.20;;;;;;5159065;27;20478;-68
2022/03/08 08:19:33;;;;;;;12.00;8.83;;;3.90;95.20;;;;;;5158846;27;20051;-68
2022/03/08 08:21:59;;;;;;;12.20;9.30;;;3.90;94.30;;;;;;5158983;27;20047;-68
2022/03/08 08:24:24;;;;;;;13.07;8.67;;;4.00;93.70;;;;;;5158682;27;20137;-69
2022/03/08 08:26:50;;;;;;;11.80;8.20;;;4.00;94.20;;;;;;5122948;27;20058;-68
2022/03/08 08:29:16;;;;;;;13.40;9.67;;;4.00;94.00;;;;;;5158977;27;20053;-68
2022/03/08 08:31:41;;;;;;;12.47;9.33;;;4.10;94.20;;;;;;5158558;27;20089;-68
2022/03/08 08:34:07;;;;;;;12.87;8.53;;;4.20;93.40;;;;;;5158732;27;20050;-68
2022/03/08 08:36:33;;;;;;;20.40;8.87;;;4.30;92.60;;;;;;5158435;27;20070;-69
2022/03/08 08:38:59;;;;;;;12.80;8.67;;;4.30;93.50;;;;;;5158882;27;20443;-68
2022/03/08 08:41:25;;;;;;;14.10;9.20;;;4.40;93.10;;;;;;5122964;27;20537;-69
2022/03/08 08:43:51;;;;;;;12.05;8.15;;;4.40;92.70;;;;;;5158714;27;20047;-68
2022/03/08 08:46:17;;;;;;;10.60;8.00;;;4.50;92.40;;;;;;5158631;27;20095;-68
2022/03/08 08:48:43;;;;;;;12.27;7.70;;;4.50;92.40;;;;;;5158226;27;20070;-69
2022/03/08 08:51:09;;;;;;;13.27;8.00;;;4.60;91.60;;;;;;5140195;27;20488;-69
2022/03/08 08:53:34;;;;;;;11.83;7.97;;;4.70;90.90;;;;;;5122856;27;20082;-69
2022/03/08 08:56:00;;;;;;;10.73;8.03;;;4.70;90.00;;;;;;5158595;27;20395;-69
2022/03/08 08:58:26;;;;;;;11.05;7.57;;;4.80;90.70;;;;;;5157964;27;20046;-69
2022/03/08 09:00:52;;;;;;;11.73;8.20;;;4.80;88.70;;;;;;5158236;27;20043;-69
2022/03/08 09:03:17;;;;;;;12.77;7.70;;;4.90;90.00;;;;;;5158473;27;20054;-68
2022/03/08 09:05:47;;;;;;;10.27;7.27;;;5.00;88.70;;;;;;5157938;27;20129;-69
2022/03/08 09:08:16;;;;;;;9.98;7.35;;;5.00;87.40;;;;;;5158064;27;20462;-69
2022/03/08 09:10:42;;;;;;;11.98;7.50;;;5.10;85.10;;;;;;5157598;27;20569;-69
2022/03/08 09:13:08;;;;;;;11.52;7.57;;;5.20;85.50;;;;;;5158052;27;20130;-69
2022/03/08 09:15:35;;;;;;;9.50;6.83;;;5.30;81.90;;;;;;5157749;27;20472;-69
2022/03/08 09:18:05;;;;;;;10.68;7.32;;;5.40;82.10;;;;;;5158047;27;20099;-69
2022/03/08 09:20:31;;;;;;;10.38;6.57;;;5.50;79.60;;;;;;5157163;27;20054;-69
2022/03/08 09:22:57;;;;;;;11.68;7.00;;;5.50;76.70;;;;;;5158088;27;20107;-69
2022/03/08 09:25:23;;;;;;;15.33;7.07;;;5.60;78.30;;;;;;5157748;27;20043;-69
2022/03/08 09:27:48;;;;;;;10.93;7.13;;;5.70;76.80;;;;;;5157977;27;20074;-69
2022/03/08 09:30:14;;;;;;;11.03;6.80;;;5.70;78.00;;;;;;5157678;27;20074;-69
2022/03/08 09:32:40;;;;;;;8.57;6.22;;;5.80;76.00;;;;;;5138965;27;20095;-69
2022/03/08 09:35:06;;;;;;;9.87;6.77;;;5.80;74.80;;;;;;5157655;27;20043;-69
2022/03/08 09:37:32;;;;;;;10.82;6.97;;;5.90;75.90;;;;;;5157260;27;20428;-69
2022/03/08 09:39:57;;;;;;;11.40;6.60;;;6.00;75.30;;;;;;5157544;27;20042;-69
2022/03/08 09:42:23;;;;;;;9.33;6.30;;;6.10;72.00;;;;;;5157738;27;20058;-69
2022/03/08 09:44:49;;;;;;;9.93;6.13;;;6.20;72.30;;;;;;5157500;27;20042;-69
2022/03/08 09:47:22;;;;;;;10.30;6.80;;;6.20;71.20;;;;;;5138908;27;20075;-69
2022/03/08 09:49:48;;;;;;;9.00;6.22;;;6.30;71.80;;;;;;5157118;27;20046;-69
2022/03/08 09:52:15;;;;;;;16.73;6.20;;;6.30;72.00;;;;;;5157295;27;20043;-69
2022/03/08 09:54:44;;;;;;;8.23;5.88;;;6.40;68.70;;;;;;5156990;27;20047;-69
2022/03/08 09:57:11;;;;;;;9.85;6.00;;;6.50;69.10;;;;;;5138774;27;20045;-68
2022/03/08 09:59:37;;;;;;;8.73;5.47;;;6.50;68.80;;;;;;5156929;27;20126;-69
2022/03/08 10:02:03;;;;;;;9.23;6.83;;;6.50;70.20;;;;;;5157183;27;20096;-69
2022/03/08 10:04:29;;;;;;;9.53;6.07;;;6.60;68.70;;;;;;5156834;27;20447;-69
2022/03/08 10:06:56;;;;;;;10.60;6.77;;;6.60;68.60;;;;;;5156987;27;20283;-69
2022/03/08 10:09:23;;;;;;;11.95;5.65;;;6.70;67.00;;;;;;5156944;27;20508;-69
2022/03/08 10:11:53;;;;;;;9.35;5.55;;;6.80;68.10;;;;;;5156692;27;20039;-69
2022/03/08 10:14:35;;;;;;;9.90;5.35;;;6.90;66.60;;;;;;5156858;27;20043;-69
2022/03/08 10:17:01;;;;;;;8.45;4.97;;;6.90;65.20;;;;;;5156837;27;20050;-69
2022/03/08 10:19:27;;;;;;;8.23;5.33;;;7.00;65.00;;;;;;5138145;27;20042;-69
2022/03/08 10:21:55;;;;;;;8.43;4.73;;;7.00;64.80;;;;;;5156320;27;20066;-69
2022/03/08 10:24:32;;;;;;;8.23;4.35;;;7.20;61.60;;;;;;5156604;27;20061;-69
2022/03/08 10:27:03;;;;;;;9.07;4.72;;;7.30;60.40;;;;;;5156760;27;20065;-69
2022/03/08 10:29:31;;;;;;;9.13;5.10;;;7.30;57.20;;;;;;5156457;27;20039;-78
2022/03/08 10:32:11;;;;;;;10.38;5.45;;;7.40;57.80;;;;;;5155631;27;20398;-69
2022/03/08 10:34:40;;;;;;;8.90;5.18;;;7.30;57.20;;;;;;5156241;27;20491;-69
2022/03/08 10:37:12;;;;;;;7.47;5.00;;;7.40;58.40;;;;;;5138127;27;20049;-69
2022/03/08 10:39:52;;;;;;;7.10;4.68;;;7.40;58.90;;;;;;5156077;27;20043;-69
2022/03/08 10:42:23;;;;;;;9.13;4.95;;;7.40;58.20;;;;;;5138652;27;20386;-69
2022/03/08 10:44:49;;;;;;;7.88;5.63;;;7.50;58.10;;;;;;5155984;27;20074;-69
2022/03/08 10:47:15;;;;;;;8.83;5.40;;;7.40;58.50;;;;;;5156136;27;20078;-69
2022/03/08 10:49:51;;;;;;;10.27;5.78;;;7.50;56.40;;;;;;5155943;27;20046;-69
2022/03/08 10:52:17;;;;;;;8.23;5.35;;;7.50;58.00;;;;;;5156079;27;20046;-69
2022/03/08 10:54:43;;;;;;;7.72;5.07;;;7.50;58.10;;;;;;5137230;27;20049;-69
2022/03/08 10:57:09;;;;;;;9.67;5.17;;;7.70;57.30;;;;;;5155894;27;20129;-69
2022/03/08 10:59:36;;;;;;;9.27;5.18;;;7.70;56.20;;;;;;5155756;27;20043;-69
2022/03/08 11:02:21;;;;;;;9.75;5.47;;;7.80;56.80;;;;;;5156090;27;20051;-69
2022/03/08 11:04:47;;;;;;;;;;;7.80;56.80;;;;;;5156130;27;20043;-69
2022/03/08 11:07:13;;;;;;;8.63;5.27;;;7.80;57.00;;;;;;5156061;27;19926;-69
2022/03/08 11:09:40;;;;;;;7.10;5.03;;;7.90;56.60;;;;;;5155563;27;20308;-69
2022/03/08 11:12:06;;;;;;;7.20;4.97;;;7.90;57.20;;;;;;5137081;27;20284;-69
2022/03/08 11:14:32;;;;;;;7.60;5.25;;;8.00;56.10;;;;;;5155299;27;20516;-69
2022/03/08 11:16:59;;;;;;;7.10;4.50;;;8.00;57.00;;;;;;5120107;27;20075;-69
2022/03/08 11:19:26;;;;;;;8.70;5.00;;;8.10;56.30;;;;;;5137146;27;20042;-69
2022/03/08 11:21:57;;;;;;;9.13;5.20;;;8.20;55.00;;;;;;5155297;27;20054;-69
2022/03/08 11:24:24;;;;;;;8.82;4.80;;;8.20;55.60;;;;;;5155866;27;20402;-69
2022/03/08 11:26:50;;;;;;;7.40;4.40;;;8.30;53.80;;;;;;5155211;27;20043;-69
2022/03/08 11:29:16;;;;;;;8.55;4.63;;;8.20;54.70;;;;;;5155426;27;20117;-69
2022/03/08 11:31:45;;;;;;;8.60;4.60;;;8.30;55.20;;;;;;5155115;27;20133;-69
2022/03/08 11:34:21;;;;;;;8.48;4.70;;;8.30;53.50;;;;;;5155420;27;20275;-69
2022/03/08 11:37:12;;;;;;;7.07;4.53;;;8.30;53.20;;;;;;5154818;27;20499;-69
2022/03/08 11:39:40;;;;;;;8.98;4.80;;;8.30;53.00;;;;;;5136573;27;20090;-69
2022/03/08 11:42:20;;;;;;;10.13;5.78;;;8.30;53.90;;;;;;5155434;27;20063;-69
2022/03/08 11:45:05;;;;;;;7.80;4.93;;;8.30;52.70;;;;;;5154936;27;20058;-69
2022/03/08 11:47:54;;;;;;;9.40;4.93;;;8.30;53.10;;;;;;5155061;27;20098;-69
2022/03/08 11:50:25;;;;;;;7.93;4.68;;;8.40;52.50;;;;;;5155379;27;20146;-69
2022/03/08 11:53:17;;;;;;;6.80;4.45;;;8.40;54.20;;;;;;5154858;27;20137;-69
2022/03/08 11:55:43;;;;;;;6.68;4.70;;;8.50;53.70;;;;;;5145581;27;20055;-69
2022/03/08 11:58:10;;;;;;;8.07;4.80;;;8.40;53.70;;;;;;5154821;27;20039;-69
2022/03/08 12:00:42;;;;;;;7.53;4.25;;;8.50;53.10;;;;;;5155077;27;20390;-69
2022/03/08 12:03:33;;;;;;;7.82;4.78;;;8.50;51.30;;;;;;5154900;27;20050;-69
2022/03/08 12:06:01;;;;;;;8.68;4.63;;;8.60;52.30;;;;;;5125000;27;20603;-69
2022/03/08 12:08:29;;;;;;;7.35;4.78;;;8.60;51.40;;;;;;5154899;27;20058;-69
2022/03/08 12:11:13;;;;;;;6.90;4.43;;;8.60;52.50;;;;;;5136335;27;20479;-69
2022/03/08 12:13:41;;;;;;;8.55;4.80;;;8.50;52.60;;;;;;5154722;27;20047;-71
2022/03/08 12:16:08;;;;;;;8.18;4.95;;;8.60;52.60;;;;;;5154490;27;20490;-69
2022/03/08 12:18:37;;;;;;;10.68;4.35;;;8.70;53.10;;;;;;5154653;27;20050;-69
2022/03/08 12:21:19;;;;;;;6.70;4.55;;;8.70;52.80;;;;;;5135922;27;20431;-69
2022/03/08 12:24:01;;;;;;;7.15;5.25;;;8.70;52.70;;;;;;5154503;27;20046;-69
2022/03/08 12:26:33;;;;;;;7.03;4.28;;;8.70;52.40;;;;;;5154841;27;20439;-69
2022/03/08 12:29:28;;;;;;;7.10;4.30;;;8.70;53.80;;;;;;5154542;27;20062;-69
2022/03/08 12:32:04;;;;;;;9.35;3.90;;;8.80;53.30;;;;;;5147400;27;20097;-69
2022/03/08 12:34:36;;;;;;;7.93;4.30;;;8.80;53.00;;;;;;5136288;27;20055;-69
2022/03/08 12:37:20;;;;;;;6.93;4.70;;;8.90;53.20;;;;;;5154352;27;20093;-69
2022/03/08 12:40:05;;;;;;;7.53;4.00;;;9.00;52.20;;;;;;5154479;27;20043;-70
2022/03/08 12:42:45;;;;;;;5.93;4.13;;;8.90;51.80;;;;;;5154750;27;20093;-69
2022/03/08 12:45:18;;;;;;;6.88;3.95;;;9.00;49.00;;;;;;5154501;27;20051;-69
2022/03/08 12:47:47;;;;;;;7.32;4.15;;;9.00;50.90;;;;;;5154012;27;20456;-70
2022/03/08 12:50:20;;;;;;;6.45;3.92;;;9.00;51.10;;;;;;5154395;27;20046;-69